sensor_id;sensor_type;location;lat;lon;timestamp;pressure;altitude;pressure_sealevel;temperature;humidity
42511;BME280;28141;51.120;17.114;2023-02-11T00:01:53;103208.11;;;23.60;24.63
42511;BME280;28141;51.120;17.114;2023-02-11T00:04:57;103198.27;;;23.57;24.95
42511;BME280;28141;51.120;17.114;2023-02-11T00:08:01;103195.61;;;23.48;24.52
42511;BME280;28141;51.120;17.114;2023-02-11T00:11:04;103190.95;;;23.48;24.79
42511;BME280;28141;51.120;17.114;2023-02-11T00:14:09;103196.85;;;23.45;24.77
42511;BME280;28141;51.120;17.114;2023-02-11T00:17:39;103185.59;;;23.39;24.86
42511;BME280;28141;51.120;17.114;2023-02-11T00:20:42;103188.19;;;23.48;25.11
42511;BME280;28141;51.120;17.114;2023-02-11T00:23:46;103180.10;;;23.55;25.02
42511;BME280;28141;51.120;17.114;2023-02-11T00:26:50;103174.05;;;23.51;24.59
42511;BME280;28141;51.120;17.114;2023-02-11T00:29:53;103166.27;;;23.55;24.87
42511;BME280;28141;51.120;17.114;2023-02-11T00:32:57;103170.07;;;23.54;24.96
42511;BME280;28141;51.120;17.114;2023-02-11T00:36:07;103168.15;;;23.62;24.77
42511;BME280;28141;51.120;17.114;2023-02-11T00:39:10;103161.77;;;23.62;24.59
42511;BME280;28141;51.120;17.114;2023-02-11T00:42:14;103160.37;;;23.58;24.52
42511;BME280;28141;51.120;17.114;2023-02-11T00:45:18;103165.58;;;23.53;24.71
42511;BME280;28141;51.120;17.114;2023-02-11T00:48:48;103167.28;;;23.46;24.77
42511;BME280;28141;51.120;17.114;2023-02-11T00:51:56;103155.84;;;23.49;24.85
42511;BME280;28141;51.120;17.114;2023-02-11T00:54:59;103160.20;;;23.51;24.80
42511;BME280;28141;51.120;17.114;2023-02-11T00:58:03;103152.27;;;23.56;24.79
42511;BME280;28141;51.120;17.114;2023-02-11T01:01:06;103147.61;;;23.57;24.84
42511;BME280;28141;51.120;17.114;2023-02-11T01:04:09;103138.23;;;23.58;24.80
42511;BME280;28141;51.120;17.114;2023-02-11T01:07:13;103135.14;;;23.53;24.67
42511;BME280;28141;51.120;17.114;2023-02-11T01:10:16;103139.11;;;23.50;24.80
42511;BME280;28141;51.120;17.114;2023-02-11T01:13:19;103141.70;;;23.60;24.57
42511;BME280;28141;51.120;17.114;2023-02-11T01:16:48;103134.80;;;23.56;24.70
42511;BME280;28141;51.120;17.114;2023-02-11T01:19:51;103121.14;;;23.54;24.79
42511;BME280;28141;51.120;17.114;2023-02-11T01:22:54;103111.27;;;23.60;24.79
42511;BME280;28141;51.120;17.114;2023-02-11T01:25:58;103107.63;;;23.59;24.66
42511;BME280;28141;51.120;17.114;2023-02-11T01:29:02;103104.69;;;23.61;24.47
42511;BME280;28141;51.120;17.114;2023-02-11T01:32:05;103100.56;;;23.57;24.65
42511;BME280;28141;51.120;17.114;2023-02-11T01:35:08;103090.69;;;23.62;24.69
42511;BME280;28141;51.120;17.114;2023-02-11T01:38:19;103082.07;;;23.57;24.71
42511;BME280;28141;51.120;17.114;2023-02-11T01:41:22;103082.92;;;23.50;24.81
42511;BME280;28141;51.120;17.114;2023-02-11T01:44:56;103072.55;;;23.52;24.74
42511;BME280;28141;51.120;17.114;2023-02-11T01:47:59;103059.75;;;23.51;24.67
42511;BME280;28141;51.120;17.114;2023-02-11T01:51:12;103052.13;;;23.53;24.77
42511;BME280;28141;51.120;17.114;2023-02-11T01:54:21;103055.42;;;23.40;24.89
42511;BME280;28141;51.120;17.114;2023-02-11T01:57:39;103046.24;;;23.40;24.95
42511;BME280;28141;51.120;17.114;2023-02-11T02:01:12;103042.80;;;23.46;24.84
42511;BME280;28141;51.120;17.114;2023-02-11T02:04:18;103052.83;;;23.47;24.95
42511;BME280;28141;51.120;17.114;2023-02-11T02:07:29;103056.81;;;23.52;24.81
42511;BME280;28141;51.120;17.114;2023-02-11T02:10:38;103034.68;;;23.52;24.93
42511;BME280;28141;51.120;17.114;2023-02-11T02:13:43;103028.98;;;23.54;24.81
42511;BME280;28141;51.120;17.114;2023-02-11T02:16:47;103024.48;;;23.53;24.50
42511;BME280;28141;51.120;17.114;2023-02-11T02:23:42;103006.32;;;23.50;24.74
42511;BME280;28141;51.120;17.114;2023-02-11T02:34:18;103003.37;;;23.44;24.83
42511;BME280;28141;51.120;17.114;2023-02-11T02:37:09;102997.84;;;23.44;24.98
42511;BME280;28141;51.120;17.114;2023-02-11T02:40:22;102990.89;;;23.48;25.11
42511;BME280;28141;51.120;17.114;2023-02-11T02:43:28;102980.04;;;23.54;24.70
42511;BME280;28141;51.120;17.114;2023-02-11T02:46:33;102976.41;;;23.54;24.67
42511;BME280;28141;51.120;17.114;2023-02-11T02:50:04;102967.58;;;23.50;24.72
42511;BME280;28141;51.120;17.114;2023-02-11T02:53:21;102966.67;;;23.58;24.67
42511;BME280;28141;51.120;17.114;2023-02-11T03:06:42;102928.69;;;23.52;24.65
42511;BME280;28141;51.120;17.114;2023-02-11T03:09:58;102930.23;;;23.54;24.71
42511;BME280;28141;51.120;17.114;2023-02-11T03:13:04;102925.23;;;23.50;24.72
42511;BME280;28141;51.120;17.114;2023-02-11T03:16:19;102921.89;;;23.62;24.50
42511;BME280;28141;51.120;17.114;2023-02-11T03:19:49;102947.66;;;23.63;24.52
42511;BME280;28141;51.120;17.114;2023-02-11T03:23:05;102934.00;;;23.61;24.44
42511;BME280;28141;51.120;17.114;2023-02-11T03:33:22;102948.05;;;23.52;24.61
42511;BME280;28141;51.120;17.114;2023-02-11T03:36:25;102931.41;;;23.60;24.56
42511;BME280;28141;51.120;17.114;2023-02-11T03:39:39;102941.77;;;23.66;24.80
42511;BME280;28141;51.120;17.114;2023-02-11T03:42:50;102935.05;;;23.60;24.43
42511;BME280;28141;51.120;17.114;2023-02-11T03:46:28;102950.07;;;23.66;24.49
42511;BME280;28141;51.120;17.114;2023-02-11T03:49:34;102942.65;;;23.67;24.44
42511;BME280;28141;51.120;17.114;2023-02-11T03:52:40;102943.12;;;23.70;24.42
42511;BME280;28141;51.120;17.114;2023-02-11T03:55:46;102937.09;;;23.67;24.54
42511;BME280;28141;51.120;17.114;2023-02-11T03:58:51;102938.10;;;23.74;24.54
42511;BME280;28141;51.120;17.114;2023-02-11T04:01:55;102925.82;;;23.76;24.46
42511;BME280;28141;51.120;17.114;2023-02-11T04:05:29;102920.12;;;23.70;24.40
42511;BME280;28141;51.120;17.114;2023-02-11T04:08:32;102907.30;;;23.77;24.28
42511;BME280;28141;51.120;17.114;2023-02-11T04:11:36;102909.20;;;23.76;24.57
42511;BME280;28141;51.120;17.114;2023-02-11T04:14:39;102904.65;;;23.83;24.35
42511;BME280;28141;51.120;17.114;2023-02-11T04:17:43;102899.48;;;23.80;24.34
42511;BME280;28141;51.120;17.114;2023-02-11T04:20:46;102890.64;;;23.85;24.32
42511;BME280;28141;51.120;17.114;2023-02-11T04:23:50;102885.64;;;23.80;24.22
42511;BME280;28141;51.120;17.114;2023-02-11T04:26:53;102881.18;;;23.79;24.24
42511;BME280;28141;51.120;17.114;2023-02-11T04:29:57;102868.51;;;23.85;24.16
42511;BME280;28141;51.120;17.114;2023-02-11T04:33:00;102863.46;;;23.88;24.45
42511;BME280;28141;51.120;17.114;2023-02-11T04:36:04;102853.61;;;23.86;24.25
42511;BME280;28141;51.120;17.114;2023-02-11T04:39:32;102851.71;;;23.86;24.20
42511;BME280;28141;51.120;17.114;2023-02-11T04:42:35;102860.02;;;23.86;24.24
42511;BME280;28141;51.120;17.114;2023-02-11T04:45:38;102864.52;;;23.87;24.32
42511;BME280;28141;51.120;17.114;2023-02-11T04:48:41;102869.90;;;23.81;24.25
42511;BME280;28141;51.120;17.114;2023-02-11T04:51:45;102877.89;;;23.76;24.35
42511;BME280;28141;51.120;17.114;2023-02-11T04:54:48;102872.41;;;23.68;24.59
42511;BME280;28141;51.120;17.114;2023-02-11T04:57:51;102867.69;;;23.76;24.39
42511;BME280;28141;51.120;17.114;2023-02-11T05:00:55;102863.20;;;23.75;24.64
42511;BME280;28141;51.120;17.114;2023-02-11T05:03:58;102847.23;;;23.85;24.45
42511;BME280;28141;51.120;17.114;2023-02-11T05:07:01;102846.18;;;23.86;24.27
42511;BME280;28141;51.120;17.114;2023-02-11T05:10:05;102834.42;;;23.84;24.34
42511;BME280;28141;51.120;17.114;2023-02-11T05:13:33;102828.88;;;23.84;24.25
42511;BME280;28141;51.120;17.114;2023-02-11T05:16:37;102826.66;;;23.80;24.52
42511;BME280;28141;51.120;17.114;2023-02-11T05:19:41;102816.41;;;23.88;24.26
42511;BME280;28141;51.120;17.114;2023-02-11T05:22:44;102815.05;;;23.84;24.28
42511;BME280;28141;51.120;17.114;2023-02-11T05:25:48;102811.24;;;23.85;24.33
42511;BME280;28141;51.120;17.114;2023-02-11T05:28:51;102806.86;;;23.91;24.35
42511;BME280;28141;51.120;17.114;2023-02-11T05:31:55;102801.30;;;23.91;23.87
42511;BME280;28141;51.120;17.114;2023-02-11T05:34:58;102801.82;;;23.94;24.17
42511;BME280;28141;51.120;17.114;2023-02-11T05:38:01;102803.91;;;23.92;24.22
42511;BME280;28141;51.120;17.114;2023-02-11T05:41:30;102810.88;;;23.88;24.14
42511;BME280;28141;51.120;17.114;2023-02-11T05:44:33;102812.61;;;23.89;24.10
42511;BME280;28141;51.120;17.114;2023-02-11T05:47:36;102810.20;;;23.86;24.20
42511;BME280;28141;51.120;17.114;2023-02-11T05:50:40;102806.38;;;23.87;24.20
42511;BME280;28141;51.120;17.114;2023-02-11T05:53:43;102809.44;;;23.92;24.22
42511;BME280;28141;51.120;17.114;2023-02-11T05:56:47;102802.19;;;23.91;24.08
42511;BME280;28141;51.120;17.114;2023-02-11T05:59:50;102804.30;;;23.89;24.09
42511;BME280;28141;51.120;17.114;2023-02-11T06:02:53;102811.17;;;23.93;23.95
42511;BME280;28141;51.120;17.114;2023-02-11T06:05:56;102804.04;;;23.99;24.22
42511;BME280;28141;51.120;17.114;2023-02-11T06:09:00;102810.12;;;23.94;24.03
42511;BME280;28141;51.120;17.114;2023-02-11T06:12:27;102801.30;;;23.91;24.12
42511;BME280;28141;51.120;17.114;2023-02-11T06:15:31;102795.42;;;23.94;24.15
42511;BME280;28141;51.120;17.114;2023-02-11T06:18:35;102796.29;;;23.94;24.02
42511;BME280;28141;51.120;17.114;2023-02-11T06:21:38;102802.76;;;23.87;23.98
42511;BME280;28141;51.120;17.114;2023-02-11T06:24:42;102801.97;;;24.01;23.93
42511;BME280;28141;51.120;17.114;2023-02-11T06:27:45;102798.33;;;24.00;24.01
42511;BME280;28141;51.120;17.114;2023-02-11T06:30:48;102801.45;;;23.97;23.75
42511;BME280;28141;51.120;17.114;2023-02-11T06:33:52;102793.66;;;24.01;24.25
42511;BME280;28141;51.120;17.114;2023-02-11T06:36:56;102789.16;;;24.00;24.07
42511;BME280;28141;51.120;17.114;2023-02-11T06:40:24;102792.58;;;24.02;24.09
42511;BME280;28141;51.120;17.114;2023-02-11T06:43:27;102782.77;;;23.99;24.08
42511;BME280;28141;51.120;17.114;2023-02-11T06:46:31;102790.38;;;23.97;24.20
42511;BME280;28141;51.120;17.114;2023-02-11T06:49:34;102790.58;;;23.96;23.94
42511;BME280;28141;51.120;17.114;2023-02-11T06:52:37;102797.33;;;23.93;24.25
42511;BME280;28141;51.120;17.114;2023-02-11T06:55:41;102796.29;;;23.94;24.02
42511;BME280;28141;51.120;17.114;2023-02-11T06:58:44;102788.11;;;24.01;24.10
42511;BME280;28141;51.120;17.114;2023-02-11T07:01:48;102799.05;;;23.94;23.89
42511;BME280;28141;51.120;17.114;2023-02-11T07:04:52;102795.16;;;24.03;24.06
42511;BME280;28141;51.120;17.114;2023-02-11T07:08:21;102784.95;;;24.04;24.14
42511;BME280;28141;51.120;17.114;2023-02-11T07:11:27;102783.83;;;24.13;24.10
42511;BME280;28141;51.120;17.114;2023-02-11T07:14:31;102771.44;;;24.09;24.16
42511;BME280;28141;51.120;17.114;2023-02-11T07:17:34;102764.84;;;24.10;24.16
42511;BME280;28141;51.120;17.114;2023-02-11T07:20:38;102746.97;;;24.13;24.04
42511;BME280;28141;51.120;17.114;2023-02-11T07:23:42;102754.23;;;24.14;24.16
42511;BME280;28141;51.120;17.114;2023-02-11T07:26:45;102769.44;;;24.18;24.08
42511;BME280;28141;51.120;17.114;2023-02-11T07:29:49;102775.66;;;24.20;24.14
42511;BME280;28141;51.120;17.114;2023-02-11T07:32:52;102772.89;;;24.20;24.01
42511;BME280;28141;51.120;17.114;2023-02-11T07:36:22;102762.13;;;24.25;24.04
42511;BME280;28141;51.120;17.114;2023-02-11T07:39:26;102766.49;;;24.19;24.10
42511;BME280;28141;51.120;17.114;2023-02-11T07:42:29;102759.35;;;24.25;24.40
42511;BME280;28141;51.120;17.114;2023-02-11T07:45:32;102765.56;;;24.27;24.23
42511;BME280;28141;51.120;17.114;2023-02-11T07:48:36;102763.11;;;24.32;24.05
42511;BME280;28141;51.120;17.114;2023-02-11T07:51:40;102754.80;;;24.32;23.96
42511;BME280;28141;51.120;17.114;2023-02-11T07:54:44;102759.95;;;24.35;24.05
42511;BME280;28141;51.120;17.114;2023-02-11T07:57:47;102760.80;;;24.35;23.93
42511;BME280;28141;51.120;17.114;2023-02-11T08:00:51;102762.26;;;24.46;23.67
42511;BME280;28141;51.120;17.114;2023-02-11T08:04:18;102771.61;;;24.45;23.88
42511;BME280;28141;51.120;17.114;2023-02-11T08:07:22;102772.20;;;24.41;23.91
42511;BME280;28141;51.120;17.114;2023-02-11T08:10:26;102779.27;;;24.43;24.07
42511;BME280;28141;51.120;17.114;2023-02-11T08:13:29;102782.05;;;24.43;23.84
42511;BME280;28141;51.120;17.114;2023-02-11T08:16:34;102781.82;;;24.45;23.80
42511;BME280;28141;51.120;17.114;2023-02-11T08:19:38;102777.55;;;24.42;24.03
42511;BME280;28141;51.120;17.114;2023-02-11T08:22:42;102769.91;;;24.44;23.89
42511;BME280;28141;51.120;17.114;2023-02-11T08:25:45;102771.24;;;24.48;23.78
42511;BME280;28141;51.120;17.114;2023-02-11T08:29:19;102772.78;;;24.51;23.92
42511;BME280;28141;51.120;17.114;2023-02-11T08:32:22;102789.89;;;24.54;24.11
42511;BME280;28141;51.120;17.114;2023-02-11T08:35:27;102779.92;;;24.45;23.68
42511;BME280;28141;51.120;17.114;2023-02-11T08:38:30;102769.42;;;24.41;23.86
42511;BME280;28141;51.120;17.114;2023-02-11T08:41:34;102777.15;;;24.45;24.16
42511;BME280;28141;51.120;17.114;2023-02-11T08:44:37;102770.49;;;24.54;23.90
42511;BME280;28141;51.120;17.114;2023-02-11T08:47:41;102755.97;;;24.52;24.15
42511;BME280;28141;51.120;17.114;2023-02-11T08:50:44;102744.20;;;24.50;23.90
42511;BME280;28141;51.120;17.114;2023-02-11T08:53:48;102752.15;;;24.53;24.06
42511;BME280;28141;51.120;17.114;2023-02-11T08:57:17;102752.15;;;24.53;24.12
42511;BME280;28141;51.120;17.114;2023-02-11T09:00:21;102760.28;;;24.55;24.12
42511;BME280;28141;51.120;17.114;2023-02-11T09:03:24;102752.61;;;24.57;24.07
42511;BME280;28141;51.120;17.114;2023-02-11T09:06:28;102748.70;;;24.51;24.11
42511;BME280;28141;51.120;17.114;2023-02-11T09:09:32;102725.30;;;24.54;24.53
42511;BME280;28141;51.120;17.114;2023-02-11T09:12:35;102730.62;;;24.55;24.25
42511;BME280;28141;51.120;17.114;2023-02-11T09:15:39;102723.20;;;24.41;24.71
42511;BME280;28141;51.120;17.114;2023-02-11T09:18:42;102719.09;;;24.52;24.57
42511;BME280;28141;51.120;17.114;2023-02-11T09:21:48;102715.08;;;24.54;24.71
42511;BME280;28141;51.120;17.114;2023-02-11T09:25:17;102709.23;;;24.49;24.67
42511;BME280;28141;51.120;17.114;2023-02-11T09:28:20;102702.45;;;24.52;24.73
42511;BME280;28141;51.120;17.114;2023-02-11T09:31:26;102705.32;;;24.58;24.53
42511;BME280;28141;51.120;17.114;2023-02-11T09:34:30;102695.46;;;24.56;24.67
42511;BME280;28141;51.120;17.114;2023-02-11T09:37:33;102680.66;;;24.49;24.90
42511;BME280;28141;51.120;17.114;2023-02-11T09:40:42;102682.77;;;24.61;24.90
42511;BME280;28141;51.120;17.114;2023-02-11T09:43:48;102679.43;;;24.51;24.98
42511;BME280;28141;51.120;17.114;2023-02-11T09:50:39;102674.00;;;24.43;25.05
42511;BME280;28141;51.120;17.114;2023-02-11T09:53:47;102665.59;;;24.51;25.24
42511;BME280;28141;51.120;17.114;2023-02-11T09:56:53;102673.41;;;24.62;25.10
42511;BME280;28141;51.120;17.114;2023-02-11T09:59:56;102665.36;;;24.67;25.18
42511;BME280;28141;51.120;17.114;2023-02-11T10:06:49;102683.94;;;24.52;25.08
42511;BME280;28141;51.120;17.114;2023-02-11T10:23:24;102654.95;;;24.69;25.36
42511;BME280;28141;51.120;17.114;2023-02-11T10:26:30;102644.16;;;24.74;25.51
42511;BME280;28141;51.120;17.114;2023-02-11T10:29:45;102625.02;;;24.80;24.86
42511;BME280;28141;51.120;17.114;2023-02-11T10:32:56;102641.62;;;24.80;25.20
42511;BME280;28141;51.120;17.114;2023-02-11T10:36:38;102637.27;;;24.70;25.18
42511;BME280;28141;51.120;17.114;2023-02-11T10:39:42;102632.96;;;24.68;25.30
42511;BME280;28141;51.120;17.114;2023-02-11T10:42:49;102641.88;;;24.63;24.99
42511;BME280;28141;51.120;17.114;2023-02-11T10:45:55;102638.91;;;24.65;25.35
42511;BME280;28141;51.120;17.114;2023-02-11T10:48:59;102635.29;;;24.64;25.51
42511;BME280;28141;51.120;17.114;2023-02-11T10:52:12;102629.55;;;24.66;25.32
42511;BME280;28141;51.120;17.114;2023-02-11T10:55:53;102643.97;;;24.61;25.53
42511;BME280;28141;51.120;17.114;2023-02-11T10:59:05;102625.70;;;24.67;25.46
42511;BME280;28141;51.120;17.114;2023-02-11T11:02:22;102626.67;;;24.59;25.69
42511;BME280;28141;51.120;17.114;2023-02-11T11:05:36;102637.95;;;24.58;25.90
42511;BME280;28141;51.120;17.114;2023-02-11T11:09:23;102629.26;;;24.46;25.87
42511;BME280;28141;51.120;17.114;2023-02-11T11:12:27;102648.96;;;24.51;25.87
42511;BME280;28141;51.120;17.114;2023-02-11T11:15:31;102639.30;;;24.47;26.15
42511;BME280;28141;51.120;17.114;2023-02-11T11:18:35;102630.80;;;24.63;26.01
42511;BME280;28141;51.120;17.114;2023-02-11T11:21:48;102620.64;;;24.70;25.78
42511;BME280;28141;51.120;17.114;2023-02-11T11:25:27;102622.98;;;24.52;25.90
42511;BME280;28141;51.120;17.114;2023-02-11T11:28:38;102633.01;;;24.53;25.85
42511;BME280;28141;51.120;17.114;2023-02-11T11:35:16;102617.55;;;24.44;26.27
42511;BME280;28141;51.120;17.114;2023-02-11T11:38:49;102623.53;;;24.62;26.18
42511;BME280;28141;51.120;17.114;2023-02-11T11:41:57;102617.88;;;24.56;26.29
42511;BME280;28141;51.120;17.114;2023-02-11T11:48:27;102613.00;;;24.72;26.08
42511;BME280;28141;51.120;17.114;2023-02-11T11:55:18;102621.18;;;24.81;25.75
42511;BME280;28141;51.120;17.114;2023-02-11T11:58:22;102600.54;;;24.83;26.25
42511;BME280;28141;51.120;17.114;2023-02-11T12:01:39;102613.91;;;24.80;26.00
42511;BME280;28141;51.120;17.114;2023-02-11T12:05:12;102618.36;;;24.59;26.11
42511;BME280;28141;51.120;17.114;2023-02-11T12:14:58;102586.83;;;24.60;26.28
42511;BME280;28141;51.120;17.114;2023-02-11T12:21:55;102578.04;;;24.57;26.39
42511;BME280;28141;51.120;17.114;2023-02-11T12:35:28;102574.70;;;24.61;26.78
42511;BME280;28141;51.120;17.114;2023-02-11T12:39:11;102571.13;;;24.67;26.60
42511;BME280;28141;51.120;17.114;2023-02-11T12:52:46;102562.88;;;24.53;26.77
42511;BME280;28141;51.120;17.114;2023-02-11T12:55:57;102547.52;;;24.71;26.72
42511;BME280;28141;51.120;17.114;2023-02-11T12:59:04;102561.45;;;24.78;26.59
42511;BME280;28141;51.120;17.114;2023-02-11T13:05:55;102562.43;;;24.70;26.55
42511;BME280;28141;51.120;17.114;2023-02-11T13:10:24;102560.28;;;24.66;26.53
42511;BME280;28141;51.120;17.114;2023-02-11T13:13:39;102553.45;;;24.68;26.56
42511;BME280;28141;51.120;17.114;2023-02-11T13:16:47;102556.70;;;24.72;26.53
42511;BME280;28141;51.120;17.114;2023-02-11T13:19:57;102561.01;;;24.74;26.42
42511;BME280;28141;51.120;17.114;2023-02-11T13:23:38;102570.02;;;24.62;26.68
42511;BME280;28141;51.120;17.114;2023-02-11T13:33:46;102561.73;;;24.47;26.94
42511;BME280;28141;51.120;17.114;2023-02-11T13:36:55;102562.02;;;24.52;26.90
42511;BME280;28141;51.120;17.114;2023-02-11T13:40:05;102558.27;;;24.45;26.65
42511;BME280;28141;51.120;17.114;2023-02-11T13:43:21;102546.07;;;24.54;27.00
42511;BME280;28141;51.120;17.114;2023-02-11T13:46:29;102535.87;;;24.40;27.12
42511;BME280;28141;51.120;17.114;2023-02-11T13:50:03;102547.50;;;24.50;27.14
42511;BME280;28141;51.120;17.114;2023-02-11T13:53:08;102554.76;;;24.51;27.08
42511;BME280;28141;51.120;17.114;2023-02-11T14:02:40;102548.92;;;24.46;27.34
42511;BME280;28141;51.120;17.114;2023-02-11T14:06:25;102550.77;;;24.39;27.33
42511;BME280;28141;51.120;17.114;2023-02-11T14:09:41;102547.88;;;24.47;27.11
42511;BME280;28141;51.120;17.114;2023-02-11T14:16:08;102560.80;;;24.40;27.29
42511;BME280;28141;51.120;17.114;2023-02-11T14:19:41;102578.17;;;24.34;27.37
42511;BME280;28141;51.120;17.114;2023-02-11T14:22:49;102586.03;;;24.30;27.46
42511;BME280;28141;51.120;17.114;2023-02-11T14:29:18;102588.49;;;24.55;27.12
42511;BME280;28141;51.120;17.114;2023-02-11T14:36:17;102583.52;;;24.35;27.71
42511;BME280;28141;51.120;17.114;2023-02-11T14:42:37;102601.20;;;24.34;27.46
42511;BME280;28141;51.120;17.114;2023-02-11T14:46:05;102607.10;;;24.46;27.47
42511;BME280;28141;51.120;17.114;2023-02-11T14:49:20;102609.31;;;24.36;27.46
42511;BME280;28141;51.120;17.114;2023-02-11T14:52:33;102611.03;;;24.37;27.97
42511;BME280;28141;51.120;17.114;2023-02-11T14:55:41;102624.20;;;24.35;27.57
42511;BME280;28141;51.120;17.114;2023-02-11T14:58:48;102616.39;;;24.38;27.65
42511;BME280;28141;51.120;17.114;2023-02-11T15:02:22;102629.12;;;24.33;27.64
42511;BME280;28141;51.120;17.114;2023-02-11T15:05:28;102622.48;;;24.19;27.73
42511;BME280;28141;51.120;17.114;2023-02-11T15:08:35;102627.77;;;24.29;27.78
42511;BME280;28141;51.120;17.114;2023-02-11T15:11:41;102631.59;;;24.28;27.82
42511;BME280;28141;51.120;17.114;2023-02-11T15:14:47;102623.46;;;24.26;27.80
42511;BME280;28141;51.120;17.114;2023-02-11T15:17:53;102618.66;;;24.20;27.97
42511;BME280;28141;51.120;17.114;2023-02-11T15:21:28;102623.76;;;24.31;27.93
42511;BME280;28141;51.120;17.114;2023-02-11T15:24:34;102627.09;;;24.27;28.03
42511;BME280;28141;51.120;17.114;2023-02-11T15:27:42;102627.83;;;24.21;28.23
42511;BME280;28141;51.120;17.114;2023-02-11T15:30:46;102627.72;;;24.14;28.19
42511;BME280;28141;51.120;17.114;2023-02-11T15:33:54;102628.70;;;24.21;28.17
42511;BME280;28141;51.120;17.114;2023-02-11T15:36:58;102634.73;;;24.25;28.06
42511;BME280;28141;51.120;17.114;2023-02-11T15:40:31;102637.98;;;24.28;28.03
42511;BME280;28141;51.120;17.114;2023-02-11T15:43:45;102641.67;;;24.21;27.95
42511;BME280;28141;51.120;17.114;2023-02-11T15:46:49;102644.09;;;24.24;28.11
42511;BME280;28141;51.120;17.114;2023-02-11T15:49:52;102643.47;;;24.14;28.20
42511;BME280;28141;51.120;17.114;2023-02-11T15:52:59;102649.98;;;24.21;28.24
42511;BME280;28141;51.120;17.114;2023-02-11T15:56:13;102647.59;;;24.18;28.03
42511;BME280;28141;51.120;17.114;2023-02-11T15:59:49;102652.64;;;23.99;28.39
42511;BME280;28141;51.120;17.114;2023-02-11T16:02:54;102646.83;;;24.09;28.34
42511;BME280;28141;51.120;17.114;2023-02-11T16:09:25;102657.02;;;23.94;28.64
42511;BME280;28141;51.120;17.114;2023-02-11T16:16:30;102643.36;;;23.92;28.68
42511;BME280;28141;51.120;17.114;2023-02-11T16:19:29;102646.07;;;24.00;28.73
42511;BME280;28141;51.120;17.114;2023-02-11T16:22:33;102654.55;;;23.99;28.81
42511;BME280;28141;51.120;17.114;2023-02-11T16:25:41;102657.90;;;24.09;28.83
42511;BME280;28141;51.120;17.114;2023-02-11T16:29:15;102664.45;;;23.93;28.72
42511;BME280;28141;51.120;17.114;2023-02-11T16:32:24;102669.81;;;23.95;28.68
42511;BME280;28141;51.120;17.114;2023-02-11T16:35:29;102676.12;;;24.03;28.87
42511;BME280;28141;51.120;17.114;2023-02-11T16:38:33;102667.16;;;24.16;28.82
42511;BME280;28141;51.120;17.114;2023-02-11T16:41:36;102671.25;;;24.06;28.79
42511;BME280;28141;51.120;17.114;2023-02-11T16:44:39;102683.96;;;24.00;28.93
42511;BME280;28141;51.120;17.114;2023-02-11T16:47:43;102691.67;;;24.05;28.44
42511;BME280;28141;51.120;17.114;2023-02-11T16:51:12;102691.77;;;23.96;28.77
42511;BME280;28141;51.120;17.114;2023-02-11T16:54:17;102700.44;;;23.93;28.95
42511;BME280;28141;51.120;17.114;2023-02-11T16:57:23;102705.23;;;23.99;28.59
42511;BME280;28141;51.120;17.114;2023-02-11T17:00:27;102705.65;;;24.11;28.90
42511;BME280;28141;51.120;17.114;2023-02-11T17:03:30;102710.02;;;24.06;28.64
42511;BME280;28141;51.120;17.114;2023-02-11T17:06:41;102716.82;;;24.18;28.71
42511;BME280;28141;51.120;17.114;2023-02-11T17:09:45;102713.32;;;24.24;28.70
42511;BME280;28141;51.120;17.114;2023-02-11T17:13:13;102734.25;;;24.03;28.71
42511;BME280;28141;51.120;17.114;2023-02-11T17:16:22;102727.52;;;24.21;28.70
42511;BME280;28141;51.120;17.114;2023-02-11T17:19:31;102737.71;;;24.06;28.75
42511;BME280;28141;51.120;17.114;2023-02-11T17:22:34;102737.71;;;24.06;28.85
42511;BME280;28141;51.120;17.114;2023-02-11T17:25:38;102745.33;;;24.03;28.86
42511;BME280;28141;51.120;17.114;2023-02-11T17:28:42;102752.04;;;24.09;28.85
42511;BME280;28141;51.120;17.114;2023-02-11T17:31:46;102750.13;;;24.10;28.89
42511;BME280;28141;51.120;17.114;2023-02-11T17:35:16;102755.62;;;23.95;28.94
42511;BME280;28141;51.120;17.114;2023-02-11T17:38:19;102766.45;;;24.05;29.00
42511;BME280;28141;51.120;17.114;2023-02-11T17:41:23;102768.23;;;23.97;29.06
42511;BME280;28141;51.120;17.114;2023-02-11T17:44:26;102769.25;;;24.19;28.94
42511;BME280;28141;51.120;17.114;2023-02-11T17:47:29;102772.39;;;24.16;28.84
42511;BME280;28141;51.120;17.114;2023-02-11T17:50:36;102768.40;;;24.19;28.76
42511;BME280;28141;51.120;17.114;2023-02-11T17:53:39;102775.74;;;24.12;28.88
42511;BME280;28141;51.120;17.114;2023-02-11T17:56:44;102781.69;;;24.23;28.91
42511;BME280;28141;51.120;17.114;2023-02-11T18:00:17;102776.52;;;24.20;28.87
42511;BME280;28141;51.120;17.114;2023-02-11T18:03:20;102773.70;;;24.28;28.91
42511;BME280;28141;51.120;17.114;2023-02-11T18:06:24;102773.33;;;24.31;28.73
42511;BME280;28141;51.120;17.114;2023-02-11T18:09:27;102764.33;;;24.29;28.85
42511;BME280;28141;51.120;17.114;2023-02-11T18:12:31;102770.66;;;24.38;28.73
42511;BME280;28141;51.120;17.114;2023-02-11T18:15:34;102761.44;;;24.23;28.63
42511;BME280;28141;51.120;17.114;2023-02-11T18:18:37;102769.20;;;24.27;28.93
42511;BME280;28141;51.120;17.114;2023-02-11T18:21:41;102772.84;;;24.28;28.94
42511;BME280;28141;51.120;17.114;2023-02-11T18:24:44;102775.60;;;24.28;28.61
42511;BME280;28141;51.120;17.114;2023-02-11T18:28:12;102780.34;;;24.19;28.87